Time;durP1;ratioP1;P1;durP2;ratioP2;P2;SDS_P1;SDS_P2;PMS_P1;PMS_P2;Temp;Humidity;BMP_temperature;BMP_pressure;BME280_temperature;BME280_humidity;BME280_pressure;Samples;Min_cycle;Max_cycle;Signal;HPM_P1;HPM_P2
2022/01/17 00:00:19;;;;;;;163.87;60.87;;;0.50;2201.60;;;;;;5081084;28;20012;-66
2022/01/17 00:02:47;;;;;;;197.10;67.27;;;0.50;2201.60;;;;;;5082292;28;20117;-66
2022/01/17 00:05:14;;;;;;;171.33;63.27;;;0.50;2201.60;;;;;;5082071;28;20032;-71
2022/01/17 00:07:40;;;;;;;199.60;65.30;;;0.50;2201.60;;;;;;5081972;28;20046;-66
2022/01/17 00:10:06;;;;;;;142.47;59.80;;;0.50;2201.60;;;;;;5086564;28;20032;-66
2022/01/17 00:12:36;;;;;;;106.90;54.77;;;0.50;2201.60;;;;;;5070831;28;20001;-66
2022/01/17 00:15:10;;;;;;;103.03;53.53;;;0.60;2201.60;;;;;;5066323;28;20017;-66
2022/01/17 00:17:39;;;;;;;136.87;56.40;;;0.60;2201.60;;;;;;5064476;28;20013;-66
2022/01/17 00:20:14;;;;;;;133.47;55.20;;;0.70;2201.60;;;;;;5061248;28;20021;-66
2022/01/17 00:22:40;;;;;;;139.33;56.07;;;0.70;2201.60;;;;;;5062839;28;20060;-66
2022/01/17 00:25:07;;;;;;;171.30;57.80;;;0.70;2201.60;;;;;;5061901;28;20025;-66
2022/01/17 00:27:34;;;;;;;132.43;54.67;;;0.60;2201.60;;;;;;5063640;28;20039;-66
2022/01/17 00:30:03;;;;;;;158.70;54.83;;;0.60;2201.60;;;;;;5066251;28;20017;-67
2022/01/17 00:32:29;;;;;;;180.23;57.77;;;0.60;2201.60;;;;;;5062523;28;20006;-66
2022/01/17 00:34:55;;;;;;;163.17;58.03;;;0.50;2201.60;;;;;;5061799;28;20001;-66
2022/01/17 00:37:21;;;;;;;126.33;56.20;;;0.50;2201.60;;;;;;5091042;22;20078;-66
2022/01/17 00:39:47;;;;;;;241.70;66.47;;;0.50;2201.60;;;;;;5106874;28;20028;-66
2022/01/17 00:42:13;;;;;;;176.37;65.37;;;0.50;2201.60;;;;;;5100606;28;20107;-66
2022/01/17 00:44:39;;;;;;;193.10;63.97;;;0.50;2201.60;;;;;;5101792;28;20038;-66
2022/01/17 00:47:05;;;;;;;361.80;72.70;;;0.40;2201.60;;;;;;5102416;28;20035;-66
2022/01/17 00:49:31;;;;;;;280.83;68.90;;;0.20;2201.60;;;;;;5101467;28;20054;-66
2022/01/17 00:51:57;;;;;;;193.53;71.53;;;0.30;2201.60;;;;;;5102272;28;20031;-66
2022/01/17 00:54:23;;;;;;;314.70;74.67;;;0.20;2201.60;;;;;;5103418;28;20031;-66
2022/01/17 00:56:49;;;;;;;188.97;64.47;;;0.00;2201.60;;;;;;5100543;28;20058;-73
2022/01/17 00:59:15;;;;;;;202.93;76.97;;;0.00;2201.60;;;;;;5101858;28;20031;-66
2022/01/17 01:01:41;;;;;;;244.40;73.17;;;0.00;2201.60;;;;;;5102587;28;20020;-66
2022/01/17 01:04:07;;;;;;;222.73;71.10;;;12.90;2201.60;;;;;;5100165;28;20044;-66
2022/01/17 01:06:36;;;;;;;216.70;75.37;;;13.00;2201.60;;;;;;5099524;28;20069;-66
2022/01/17 01:09:04;;;;;;;223.63;69.73;;;12.90;2201.60;;;;;;5101210;28;20487;-66
2022/01/17 01:11:30;;;;;;;164.20;66.57;;;13.00;2201.60;;;;;;5099409;28;20020;-66
2022/01/17 01:13:56;;;;;;;182.93;71.23;;;13.00;2201.60;;;;;;5104840;28;20111;-66
2022/01/17 01:16:30;;;;;;;225.97;77.30;;;13.00;2201.60;;;;;;5104294;28;20039;-66
2022/01/17 01:21:47;;;;;;;164.30;64.10;;;13.00;2201.60;;;;;;5100887;28;20020;-66
2022/01/17 01:29:48;;;;;;;199.53;65.93;;;13.00;2201.60;;;;;;5101297;28;20105;-66
2022/01/17 01:32:20;;;;;;;188.07;66.17;;;;;;;;;;5106529;28;20020;-71
2022/01/17 01:34:50;;;;;;;180.90;63.83;;;13.20;2201.60;;;;;;5101322;28;20081;-66
2022/01/17 01:37:16;;;;;;;139.27;58.33;;;13.20;2201.60;;;;;;5101992;28;20051;-67
2022/01/17 01:39:42;;;;;;;130.77;56.67;;;13.20;2201.60;;;;;;5107043;28;20012;-66
2022/01/17 01:42:15;;;;;;;162.23;59.50;;;13.30;2201.60;;;;;;5105903;28;20019;-66
2022/01/17 01:44:41;;;;;;;119.40;55.65;;;13.30;2201.60;;;;;;5106966;28;20447;-65
2022/01/17 01:47:07;;;;;;;116.50;52.30;;;13.30;2201.60;;;;;;5085980;28;20038;-66
2022/01/17 01:49:33;;;;;;;130.50;56.37;;;13.30;2201.60;;;;;;5104709;28;20012;-65
2022/01/17 01:51:59;;;;;;;117.73;55.37;;;13.20;2201.60;;;;;;5106817;28;20022;-66
2022/01/17 01:54:25;;;;;;;101.50;51.13;;;13.20;2201.60;;;;;;5110042;28;20107;-65
2022/01/17 01:56:51;;;;;;;123.20;55.70;;;;;;;;;;5102869;28;20073;-65
2022/01/17 01:59:20;;;;;;;119.40;55.77;;;;;;;;;;5106109;28;20113;-65
2022/01/17 02:01:47;;;;;;;122.80;53.73;;;;;;;;;;5100671;28;20366;-65
2022/01/17 02:04:13;;;;;;;119.47;55.73;;;;;;;;;;5107608;28;20036;-67
2022/01/17 02:06:40;;;;;;;129.50;55.97;;;;;;;;;;5103770;28;20050;-65
2022/01/17 02:09:06;;;;;;;130.47;59.03;;;;;;;;;;5103875;28;20028;-65
2022/01/17 02:11:33;;;;;;;133.63;58.30;;;;;;;;;;5101606;28;20025;-65
2022/01/17 02:14:00;;;;;;;136.30;61.07;;;;;;;;;;5107269;28;20125;-75
2022/01/17 02:16:27;;;;;;;131.23;59.57;;;;;;;;;;5107164;28;20103;-65
2022/01/17 02:18:53;;;;;;;119.93;56.27;;;;;;;;;;5110068;28;20028;-69
2022/01/17 02:21:32;;;;;;;118.97;55.43;;;;;;;;;;5105914;28;20083;-65
2022/01/17 02:23:59;;;;;;;117.03;54.20;;;;;;;;;;5110953;28;20384;-65
2022/01/17 02:26:25;;;;;;;100.50;51.53;;;;;;;;;;5108169;28;20074;-65
2022/01/17 02:28:54;;;;;;;112.33;54.53;;;;;;;;;;5107988;28;20115;-67
2022/01/17 02:31:21;;;;;;;120.90;52.87;;;;;;;;;;5106995;28;20016;-65
2022/01/17 02:33:50;;;;;;;117.87;52.30;;;;;;;;;;5108706;28;20099;-65
2022/01/17 02:36:16;;;;;;;117.10;51.30;;;;;;;;;;5105421;28;20009;-65
2022/01/17 02:38:42;;;;;;;109.30;52.37;;;;;;;;;;5110919;28;20020;-65
2022/01/17 02:41:09;;;;;;;120.47;54.63;;;;;;;;;;5108216;28;20036;-65
2022/01/17 02:43:36;;;;;;;110.67;55.07;;;;;;;;;;5107295;28;20478;-65
2022/01/17 02:48:30;;;;;;;127.03;55.80;;;;;;;;;;5108370;28;20023;-66
2022/01/17 02:50:57;;;;;;;124.70;54.17;;;;;;;;;;5106485;28;20036;-65
2022/01/17 02:53:24;;;;;;;119.73;54.80;;;;;;;;;;5107884;28;20008;-65
2022/01/17 02:55:52;;;;;;;112.10;51.97;;;;;;;;;;5091562;28;20392;-77
2022/01/17 02:58:20;;;;;;;121.70;52.70;;;;;;;;;;5111112;28;20030;-66
2022/01/17 03:00:47;;;;;;;110.83;53.70;;;;;;;;;;5109206;28;20073;-67
2022/01/17 03:03:14;;;;;;;108.30;51.30;;;;;;;;;;5109265;28;20005;-70
2022/01/17 03:05:41;;;;;;;114.80;53.53;;;;;;;;;;5093681;28;20072;-65
2022/01/17 03:08:07;;;;;;;112.90;54.03;;;;;;;;;;5111255;28;20031;-65
2022/01/17 03:13:28;;;;;;;134.37;59.70;;;;;;;;;;5110096;28;20084;-71
2022/01/17 03:15:57;;;;;;;120.73;56.10;;;;;;;;;;5109937;28;20004;-65
2022/01/17 03:18:25;;;;;;;116.27;56.93;;;;;;;;;;5106118;28;20043;-65
2022/01/17 03:20:51;;;;;;;112.03;54.67;;;;;;;;;;5106058;28;20549;-68
2022/01/17 03:23:17;;;;;;;122.13;59.17;;;;;;;;;;5091582;28;20025;-66
2022/01/17 03:25:44;;;;;;;115.33;57.40;;;;;;;;;;5104766;28;20024;-65
2022/01/17 03:28:10;;;;;;;114.77;57.67;;;;;;;;;;5105807;28;20016;-65
2022/01/17 03:30:36;;;;;;;120.40;61.97;;;;;;;;;;5105451;28;20473;-65
2022/01/17 03:33:07;;;;;;;130.53;65.43;;;;;;;;;;5108629;28;20004;-77
2022/01/17 03:35:33;;;;;;;121.00;61.90;;;;;;;;;;5105048;28;20008;-65
2022/01/17 03:38:00;;;;;;;123.30;61.97;;;;;;;;;;5106866;28;20101;-68
2022/01/17 03:40:26;;;;;;;118.00;61.50;;;;;;;;;;5104829;28;20027;-65
2022/01/17 03:42:52;;;;;;;123.00;64.23;;;;;;;;;;5107166;28;20028;-66
2022/01/17 03:45:19;;;;;;;113.53;58.83;;;;;;;;;;5106868;28;20040;-65
2022/01/17 03:47:48;;;;;;;108.37;58.27;;;;;;;;;;5105215;28;20036;-65
2022/01/17 03:50:15;;;;;;;110.20;55.37;;;;;;;;;;5106219;28;20040;-65
2022/01/17 03:52:41;;;;;;;106.13;53.57;;;;;;;;;;5108415;28;20020;-74
2022/01/17 03:55:09;;;;;;;103.33;54.33;;;;;;;;;;5107835;28;20016;-65
2022/01/17 03:57:35;;;;;;;103.97;53.53;;;;;;;;;;5108684;28;20036;-66
2022/01/17 04:00:03;;;;;;;107.27;56.33;;;;;;;;;;5108782;28;20423;-73
2022/01/17 04:02:29;;;;;;;107.23;57.47;;;;;;;;;;5102360;28;20024;-65
2022/01/17 04:04:55;;;;;;;119.97;60.07;;;;;;;;;;5110766;28;20032;-66
2022/01/17 04:07:22;;;;;;;125.47;56.23;;;;;;;;;;5107220;28;20020;-65
2022/01/17 04:09:48;;;;;;;121.10;60.27;;;;;;;;;;5107475;28;20036;-65
2022/01/17 04:12:14;;;;;;;141.13;63.10;;;;;;;;;;5105578;28;20020;-65
2022/01/17 04:14:40;;;;;;;139.53;63.40;;;;;;;;;;5112986;28;20023;-66
2022/01/17 04:17:07;;;;;;;131.07;59.80;;;;;;;;;;5109271;28;20111;-66
2022/01/17 04:19:33;;;;;;;128.97;61.43;;;;;;;;;;5113331;22;21538;-71
2022/01/17 04:22:00;;;;;;;126.57;60.27;;;;;;;;;;5107104;28;20024;-65
2022/01/17 04:24:27;;;;;;;120.47;59.07;;;;;;;;;;5092914;22;20049;-74
2022/01/17 04:26:54;;;;;;;115.57;57.80;;;;;;;;;;5068236;28;20013;-66
2022/01/17 04:29:20;;;;;;;116.87;58.40;;;;;;;;;;5066441;28;20033;-65
2022/01/17 04:31:47;;;;;;;124.87;60.20;;;;;;;;;;5069118;28;20005;-71
2022/01/17 04:34:13;;;;;;;117.73;58.27;;;;;;;;;;5068077;28;20029;-66
2022/01/17 04:36:39;;;;;;;114.10;58.90;;;;;;;;;;5065881;28;20051;-65
2022/01/17 04:39:05;;;;;;;111.57;58.23;;;;;;;;;;5068235;28;20043;-79
2022/01/17 04:41:38;;;;;;;112.50;59.13;;;;;;;;;;5067838;28;20029;-76
2022/01/17 04:46:50;;;;;;;115.50;59.90;;;;;;;;;;5067626;28;20378;-68
2022/01/17 04:49:16;;;;;;;122.77;62.93;;;;;;;;;;5068129;28;20027;-65
2022/01/17 04:51:43;;;;;;;129.67;69.13;;;;;;;;;;5065852;28;20029;-66
2022/01/17 04:54:35;;;;;;;121.40;65.10;;;;;;;;;;5068867;28;20025;-65
2022/01/17 04:56:58;;;;;;;110.90;59.53;;;;;;;;;;5064434;28;20052;-65
2022/01/17 04:59:24;;;;;;;112.37;61.13;;;;;;;;;;5063382;28;20436;-65
2022/01/17 05:01:50;;;;;;;107.40;59.27;;;;;;;;;;5067105;28;20044;-74
2022/01/17 05:04:16;;;;;;;111.30;55.60;;;;;;;;;;5066815;28;20048;-65
2022/01/17 05:06:42;;;;;;;117.40;62.50;;;;;;;;;;5063911;28;20036;-71
2022/01/17 05:09:09;;;;;;;118.83;62.07;;;;;;;;;;5066195;28;20029;-65
2022/01/17 05:11:35;;;;;;;118.20;65.27;;;;;;;;;;5065380;28;20041;-74
2022/01/17 05:14:01;;;;;;;112.50;63.10;;;;;;;;;;5065235;28;20056;-66
2022/01/17 05:16:35;;;;;;;123.27;64.77;;;;;;;;;;5068035;28;20528;-68
2022/01/17 05:21:46;;;;;;;127.93;65.90;;;;;;;;;;5043398;28;20113;-65
2022/01/17 05:24:12;;;;;;;138.33;73.53;;;;;;;;;;5042805;28;20374;-66
2022/01/17 05:26:39;;;;;;;123.70;67.23;;;;;;;;;;5042479;28;20036;-66
2022/01/17 05:29:05;;;;;;;120.63;66.37;;;;;;;;;;5047514;28;20041;-68
2022/01/17 05:31:31;;;;;;;124.13;67.87;;;;;;;;;;5042521;28;20456;-65
2022/01/17 05:33:57;;;;;;;131.63;70.30;;;;;;;;;;5046504;28;20025;-75
2022/01/17 05:36:23;;;;;;;137.30;72.93;;;;;;;;;;5042111;28;20034;-66
2022/01/17 05:38:52;;;;;;;128.70;69.20;;;;;;;;;;5043059;28;20017;-66
2022/01/17 05:41:18;;;;;;;125.57;69.17;;;;;;;;;;5050812;28;20183;-71
2022/01/17 05:43:44;;;;;;;129.93;70.73;;;;;;;;;;5043463;28;20022;-66
2022/01/17 05:46:11;;;;;;;128.17;70.60;;;;;;;;;;5047816;28;20066;-66
2022/01/17 05:48:37;;;;;;;133.20;72.50;;;;;;;;;;5046513;28;20035;-66
2022/01/17 05:51:03;;;;;;;130.07;72.17;;;;;;;;;;5043910;28;20397;-71
2022/01/17 05:53:29;;;;;;;140.47;71.67;;;;;;;;;;5043368;28;20459;-66
2022/01/17 05:55:56;;;;;;;141.13;73.53;;;;;;;;;;5045892;28;20010;-70
2022/01/17 05:58:22;;;;;;;157.97;79.77;;;;;;;;;;5045734;28;20033;-66
2022/01/17 06:00:48;;;;;;;148.23;77.57;;;;;;;;;;5046715;28;20167;-78
2022/01/17 06:03:15;;;;;;;133.10;71.30;;;;;;;;;;5046014;28;20048;-67
2022/01/17 06:05:41;;;;;;;142.37;74.57;;;;;;;;;;5043600;28;20025;-66
2022/01/17 06:08:07;;;;;;;141.27;75.40;;;;;;;;;;5041584;28;20101;-66
2022/01/17 06:10:34;;;;;;;134.10;69.77;;;;;;;;;;5043574;28;20029;-75
2022/01/17 06:13:01;;;;;;;147.90;78.20;;;;;;;;;;5043120;28;20049;-66
2022/01/17 06:15:27;;;;;;;161.27;86.17;;;;;;;;;;5041251;28;20043;-77
2022/01/17 06:17:53;;;;;;;154.87;86.77;;;;;;;;;;5045301;28;20056;-65
2022/01/17 06:20:20;;;;;;;154.67;82.07;;;;;;;;;;5044715;28;20111;-66
2022/01/17 06:22:46;;;;;;;146.60;79.30;;;;;;;;;;5043680;28;20052;-67
2022/01/17 06:25:12;;;;;;;144.60;78.83;;;;;;;;;;5043250;28;20026;-66
2022/01/17 06:27:39;;;;;;;140.83;76.13;;;;;;;;;;5043567;28;20075;-66
2022/01/17 06:30:05;;;;;;;146.50;80.23;;;;;;;;;;5042346;28;20056;-77
2022/01/17 06:32:32;;;;;;;150.67;80.73;;;;;;;;;;5075828;22;20532;-68
2022/01/17 06:34:58;;;;;;;152.67;82.77;;;;;;;;;;5066558;28;20030;-77
2022/01/17 06:37:25;;;;;;;148.33;83.37;;;;;;;;;;5082241;28;20068;-65
2022/01/17 06:39:51;;;;;;;137.57;80.93;;;;;;;;;;5067297;28;20035;-66
2022/01/17 06:42:18;;;;;;;149.83;82.23;;;;;;;;;;5081034;28;20043;-65
2022/01/17 06:44:44;;;;;;;143.50;81.27;;;;;;;;;;5081511;28;20036;-67
2022/01/17 06:47:10;;;;;;;133.97;76.13;;;;;;;;;;5083137;28;20481;-67
2022/01/17 06:49:36;;;;;;;141.23;76.13;;;;;;;;;;5084424;28;20009;-71
2022/01/17 06:52:03;;;;;;;137.37;74.80;;;;;;;;;;5080533;28;20027;-65
2022/01/17 06:54:29;;;;;;;141.57;78.60;;;;;;;;;;5104259;28;20024;-66
2022/01/17 06:56:55;;;;;;;147.13;81.43;;;;;;;;;;5103168;28;20012;-68
2022/01/17 06:59:22;;;;;;;139.80;79.27;;;;;;;;;;5088919;28;20032;-66
2022/01/17 07:01:48;;;;;;;140.57;80.17;;;;;;;;;;5090002;28;20099;-70
2022/01/17 07:04:14;;;;;;;138.47;81.60;;;;;;;;;;5090182;28;20020;-66
2022/01/17 07:06:40;;;;;;;124.07;72.27;;;;;;;;;;5091247;28;20386;-66
2022/01/17 07:09:11;;;;;;;134.37;72.83;;;;;;;;;;5089665;28;20028;-78
2022/01/17 07:11:38;;;;;;;133.20;74.43;;;;;;;;;;5083441;28;20123;-74
2022/01/17 07:14:09;;;;;;;137.37;77.07;;;0.10;2201.60;;;;;;5080061;28;20377;-72
2022/01/17 07:16:39;;;;;;;142.07;78.70;;;0.20;2201.60;;;;;;5076167;28;20039;-65
2022/01/17 07:19:05;;;;;;;142.43;78.23;;;0.30;2201.60;;;;;;5076103;28;20020;-64
2022/01/17 07:21:32;;;;;;;135.50;76.53;;;0.30;2201.60;;;;;;5076056;28;20043;-70
2022/01/17 07:23:59;;;;;;;149.33;83.77;;;0.40;2201.60;;;;;;5075662;28;20029;-64
2022/01/17 07:26:25;;;;;;;145.10;81.97;;;0.40;2201.60;;;;;;5075877;28;20039;-64
2022/01/17 07:28:50;;;;;;;156.23;88.10;;;0.50;2201.60;;;;;;5075766;28;20479;-64
2022/01/17 07:31:17;;;;;;;149.57;86.20;;;0.60;2201.60;;;;;;5075329;28;20037;-64
2022/01/17 07:33:43;;;;;;;143.63;79.53;;;0.70;2201.60;;;;;;5075773;28;20096;-74
2022/01/17 07:36:09;;;;;;;149.70;86.17;;;0.70;2201.60;;;;;;5074575;28;20103;-74
2022/01/17 07:38:35;;;;;;;167.00;90.37;;;0.80;2201.60;;;;;;5075771;28;20035;-64
2022/01/17 07:41:02;;;;;;;151.77;85.53;;;0.90;2201.60;;;;;;5075838;28;20020;-74
2022/01/17 07:43:28;;;;;;;158.20;92.23;;;25.60;2201.60;;;;;;5075625;28;20028;-65
2022/01/17 07:46:05;;;;;;;161.80;93.00;;;25.60;2201.60;;;;;;5075915;28;20024;-65
2022/01/17 07:51:00;;;;;;;150.10;83.70;;;25.80;2201.60;;;;;;5077594;28;20127;-75
2022/01/17 07:53:25;;;;;;;142.80;82.40;;;25.80;2201.60;;;;;;5080587;28;20056;-75
2022/01/17 07:55:52;;;;;;;142.20;84.53;;;25.90;2201.60;;;;;;5075476;28;20509;-65
2022/01/17 07:58:17;;;;;;;156.43;90.87;;;26.00;2201.60;;;;;;5075773;28;20020;-74
2022/01/17 08:00:43;;;;;;;146.67;87.97;;;26.00;2201.60;;;;;;5076921;28;20477;-70
2022/01/17 08:03:09;;;;;;;140.17;85.53;;;26.20;2201.60;;;;;;5075439;28;20438;-72
2022/01/17 08:05:35;;;;;;;155.93;88.57;;;26.30;2201.60;;;;;;5057444;28;20099;-74
2022/01/17 08:08:01;;;;;;;139.43;81.87;;;26.50;2201.60;;;;;;5075087;28;20017;-72
2022/01/17 08:10:28;;;;;;;132.63;78.43;;;51.30;2227.20;;;;;;5075248;28;20033;-65
2022/01/17 08:12:55;;;;;;;133.10;81.97;;;51.40;2227.20;;;;;;5074539;28;20031;-74
2022/01/17 08:15:21;;;;;;;134.70;83.33;;;51.60;2227.20;;;;;;5075240;28;20500;-64
2022/01/17 08:17:47;;;;;;;126.03;74.10;;;51.70;2227.20;;;;;;5080155;28;20028;-74
2022/01/17 08:20:14;;;;;;;126.67;76.40;;;51.70;2227.20;;;;;;5095318;28;20047;-65
2022/01/17 08:22:41;;;;;;;123.33;75.80;;;51.90;2227.20;;;;;;5095720;28;20055;-65
2022/01/17 08:25:08;;;;;;;125.17;77.07;;;52.10;2227.20;;;;;;5095015;28;20028;-65
2022/01/17 08:27:33;;;;;;;121.90;72.93;;;76.90;2227.20;;;;;;5076996;28;20110;-73
2022/01/17 08:30:00;;;;;;;115.17;71.37;;;77.00;2227.20;;;;;;5095040;28;20555;-65
2022/01/17 08:32:28;;;;;;;115.73;71.50;;;77.10;2227.20;;;;;;5090489;28;20044;-64
